CheckWX is a tool to help pilots better visualize weather data.  It is not intended as a substitute for an official pre-flight weather briefing.

04:05:02 UTC

CYYG METAR
Charlottetown Airport
Charlottetown, Canada
Current

1 hour ago

CYYG 250300Z 06009KT 2 1/2SM -RADZ BR OVC004 04/04 A2967 RMK SF8 SLP049
Observed
Apr-25 @ 03:00 UTC
Wind
  • 060° at 9 KTS
Visibility
2 1/2 SM
Flight Rules
LIFR
Conditions
Light Rain, Light Drizzle, Mist
Cloud Levels
  • Overcast at 400' AGL
Temperature
C / 39°F
Dewpoint
C / 39°F
Humidity
100%
Altimeter
29.67" Hg
Pressure
1004.72 hPa
Previous

2 hours ago

CYYG 250200Z 08008KT 2 1/2SM -RADZ BR OVC004 03/03 A2968 RMK SF8 SLP054
Observed
Apr-25 @ 02:00 UTC
Wind
  • 080° at 8 KTS
Visibility
2 1/2 SM
Flight Rules
LIFR
Conditions
Light Rain, Light Drizzle, Mist
Cloud Levels
  • Overcast at 400' AGL
Temperature
C / 37°F
Dewpoint
C / 37°F
Humidity
100%
Altimeter
29.68" Hg
Pressure
1005.12 hPa
Previous

2 hours ago

CYYG 250140Z 07008KT 2SM -RADZ BR OVC003 03/03 A2970 RMK SF8 SLP060
Observed
Apr-25 @ 01:40 UTC
Wind
  • 070° at 8 KTS
Visibility
2 SM
Flight Rules
LIFR
Conditions
Light Rain, Light Drizzle, Mist
Cloud Levels
  • Overcast at 300' AGL
Temperature
C / 37°F
Dewpoint
C / 37°F
Humidity
100%
Altimeter
29.7" Hg
Pressure
1005.72 hPa